< < Back
Terminal Aerodrome Forecast


Current Version              Previous Versions:   1  2  3  4  5  6  7  8  9  

Terminal Aerodrome Forecast

630
FTUS42 KCHS 242300
TAFSAV
TAF
KSAV 242333Z 2500/2524 22006KT P6SM SCT040 SCT080
     FM251200 27007KT P6SM SCT035
     FM252000 24007KT P6SM SCT045 BKN200=

Latest METAR

521
SAUS80 KWBC 250500
MTRSAV
METAR KSAV 250453Z AUTO 25003KT 10SM CLR 27/22 A2997 RMK AO2 SLP149
T02670217 403500244 TSNO


USA.gov is the U.S. government's official web portal to all federal, state and local government web resources and services.